Wetterdaten: Woche 03.01.05 - 09.01.05 (KW1)
Datum Zeit Temperatur Luftfeuchte Luftdruck Niederschlag Wind Richtung Sonne Solar Taupunkt Windchill
03.01.2005 00:00 2.1 C 89 % 1033.9 hPa 0.3 l/m 6.6 km/h (2 Bft) W-NW 0.00 h 0 W/m 0.5 C 0.5 C
03.01.2005 01:00 1.7 C 93 % 1033.9 hPa 0.0 l/m 3.5 km/h (1 Bft) SO 0.00 h 0 W/m 0.8 C 1.0 C
03.01.2005 02:00 1.7 C 94 % 1034.5 hPa 0.0 l/m 1.7 km/h (1 Bft) S 0.00 h 0 W/m 0.8 C 1.4 C
03.01.2005 03:00 1.7 C 95 % 1035.0 hPa 0.0 l/m 2.8 km/h (1 Bft) W 0.00 h 0 W/m 1.0 C 1.1 C
03.01.2005 04:00 1.9 C 95 % 1035.0 hPa 0.3 l/m 2.2 km/h (1 Bft) S 0.00 h 0 W/m 1.2 C 1.6 C
03.01.2005 05:00 1.8 C 95 % 1035.8 hPa 0.0 l/m 5.7 km/h (1 Bft) W 0.00 h 0 W/m 1.1 C 0.3 C
03.01.2005 06:00 2.1 C 95 % 1036.0 hPa 0.0 l/m 3.7 km/h (1 Bft) W 0.00 h 0 W/m 1.3 C 1.2 C
03.01.2005 07:00 2.3 C 91 % 1036.6 hPa 0.0 l/m 17.2 km/h (3 Bft) W-NW 0.00 h 0 W/m 0.9 C -1.9 C
03.01.2005 08:00 1.1 C 89 % 1037.1 hPa 0.0 l/m 3.5 km/h (1 Bft) W 0.00 h 19 W/m -0.4 C 0.3 C
03.01.2005 09:00 1.9 C 90 % 1037.8 hPa 0.0 l/m 0.3 km/h (0 Bft) S 0.03 h 54 W/m 0.4 C 1.8 C
03.01.2005 10:00 2.9 C 84 % 1037.9 hPa 0.0 l/m 0.7 km/h (0 Bft) W-SW 0.07 h 91 W/m 0.5 C 2.7 C
03.01.2005 11:00 3.8 C 76 % 1038.0 hPa 0.0 l/m 9.6 km/h (2 Bft) W-NW 0.00 h 132 W/m -0.0 C 1.9 C
03.01.2005 12:00 3.8 C 73 % 1038.1 hPa 0.0 l/m 15.4 km/h (3 Bft) W-NW 0.00 h 127 W/m -0.6 C 0.3 C
03.01.2005 13:00 4.6 C 69 % 1037.7 hPa 0.0 l/m 14.2 km/h (3 Bft) W-NW 0.52 h 212 W/m -0.6 C 1.6 C
03.01.2005 14:00 4.9 C 68 % 1037.6 hPa 0.0 l/m 11.6 km/h (2 Bft) W 0.32 h 183 W/m -0.6 C 2.4 C
03.01.2005 15:00 5.3 C 66 % 1037.6 hPa 0.0 l/m 14.7 km/h (3 Bft) W-NW 0.67 h 145 W/m -0.5 C 2.2 C
03.01.2005 16:00 4.3 C 71 % 1037.8 hPa 0.0 l/m 4.0 km/h (1 Bft) W-NW 0.40 h 45 W/m -0.4 C 3.4 C
03.01.2005 17:00 3.8 C 74 % 1037.9 hPa 0.0 l/m 17.7 km/h (3 Bft) W-NW 0.00 h 0 W/m -0.5 C 0.2 C
03.01.2005 18:00 3.6 C 77 % 1038.0 hPa 0.0 l/m 6.2 km/h (2 Bft) W-NW 0.00 h 0 W/m -0.2 C 2.2 C
03.01.2005 19:00 3.3 C 78 % 1038.7 hPa 0.0 l/m 0.8 km/h (0 Bft) W-NW 0.00 h 0 W/m -0.0 C 3.2 C
03.01.2005 20:00 3.2 C 79 % 1038.9 hPa 0.0 l/m 1.0 km/h (0 Bft) W-NW 0.00 h 0 W/m -0.0 C 3.1 C
03.01.2005 21:00 3.0 C 80 % 1039.0 hPa 0.0 l/m 3.1 km/h (1 Bft) W-NW 0.00 h 0 W/m -0.2 C 2.3 C
03.01.2005 22:00 3.0 C 81 % 1039.0 hPa 0.0 l/m 2.4 km/h (1 Bft) W 0.00 h 0 W/m 0.0 C 2.4 C
03.01.2005 23:00 2.8 C 80 % 1039.0 hPa 0.0 l/m 2.1 km/h (1 Bft) SO 0.00 h 0 W/m -0.4 C 2.3 C
04.01.2005 00:00 1.0 C 82 % 1038.4 hPa 0.0 l/m 2.2 km/h (1 Bft) O-SO 0.00 h 0 W/m -1.7 C 0.5 C
04.01.2005 01:00 0.7 C 85 % 1038.3 hPa 0.0 l/m 4.2 km/h (1 Bft) SO 0.00 h 0 W/m -1.6 C -0.5 C
04.01.2005 02:00 0.8 C 83 % 1038.2 hPa 0.0 l/m 6.9 km/h (2 Bft) SO 0.00 h 0 W/m -1.8 C -1.1 C
04.01.2005 03:00 0.4 C 83 % 1038.3 hPa 0.0 l/m 8.4 km/h (2 Bft) O-SO 0.00 h 0 W/m -2.1 C -2.1 C
04.01.2005 04:00 0.6 C 80 % 1038.0 hPa 0.0 l/m 3.1 km/h (1 Bft) SO 0.00 h 0 W/m -2.5 C -0.2 C
04.01.2005 05:00 -0.3 C 81 % 1037.4 hPa 0.0 l/m 3.4 km/h (1 Bft) SO 0.00 h 0 W/m -3.2 C -1.3 C
04.01.2005 06:00 -1.6 C 84 % 1037.5 hPa 0.0 l/m 2.3 km/h (1 Bft) SO 0.00 h 0 W/m -3.9 C -2.1 C
04.01.2005 07:00 -2.1 C 87 % 1036.8 hPa 0.0 l/m 4.2 km/h (1 Bft) SO 0.00 h 0 W/m -4.0 C -3.3 C
04.01.2005 08:00 -2.2 C 89 % 1036.6 hPa 0.0 l/m 3.1 km/h (1 Bft) O-SO 0.37 h 45 W/m -3.7 C -2.8 C
04.01.2005 09:00 -0.8 C 84 % 1036.4 hPa 0.0 l/m 3.7 km/h (1 Bft) SO 1.00 h 180 W/m -3.3 C -1.8 C
04.01.2005 10:00 0.5 C 74 % 1036.2 hPa 0.0 l/m 5.3 km/h (1 Bft) O-SO 0.97 h 267 W/m -3.5 C -1.0 C
04.01.2005 11:00 1.9 C 70 % 1036.0 hPa 0.0 l/m 9.9 km/h (2 Bft) SO 1.00 h 364 W/m -3.0 C -0.8 C
04.01.2005 12:00 3.2 C 66 % 1035.0 hPa 0.0 l/m 12.9 km/h (3 Bft) SO 1.00 h 400 W/m -2.6 C 0.0 C
04.01.2005 13:00 4.7 C 59 % 1033.7 hPa 0.0 l/m 10.5 km/h (2 Bft) SO 1.00 h 383 W/m -2.6 C 2.3 C
04.01.2005 14:00 5.2 C 54 % 1032.6 hPa 0.0 l/m 7.9 km/h (2 Bft) S-SW 1.00 h 323 W/m -3.3 C 3.5 C
04.01.2005 15:00 4.6 C 54 % 1032.5 hPa 0.0 l/m 9.4 km/h (2 Bft) SO 0.98 h 212 W/m -3.9 C 2.5 C
04.01.2005 16:00 3.3 C 59 % 1032.7 hPa 0.0 l/m 3.0 km/h (1 Bft) SO 0.60 h 65 W/m -4.0 C 2.8 C
04.01.2005 17:00 1.7 C 66 % 1033.0 hPa 0.0 l/m 6.4 km/h (2 Bft) O-SO 0.00 h 0 W/m -4.0 C -0.2 C
04.01.2005 18:00 0.6 C 72 % 1033.1 hPa 0.0 l/m 2.3 km/h (1 Bft) O 0.00 h 0 W/m -3.9 C -0.0 C
04.01.2005 19:00 0.1 C 74 % 1033.1 hPa 0.0 l/m 3.4 km/h (1 Bft) O 0.00 h 0 W/m -4.0 C -0.8 C
04.01.2005 20:00 -0.7 C 81 % 1033.3 hPa 0.0 l/m 2.2 km/h (1 Bft) O 0.00 h 0 W/m -3.6 C -1.3 C
04.01.2005 21:00 -1.4 C 82 % 1033.4 hPa 0.0 l/m 0.0 km/h (0 Bft) N 0.00 h 0 W/m -4.1 C -1.4 C
04.01.2005 22:00 -1.8 C 85 % 1033.4 hPa 0.0 l/m 0.0 km/h (0 Bft) N 0.00 h 0 W/m -4.0 C -1.8 C
04.01.2005 23:00 -2.2 C 89 % 1033.5 hPa 0.0 l/m 0.4 km/h (0 Bft) O 0.00 h 0 W/m -3.8 C -2.2 C
05.01.2005 00:00 -2.4 C 90 % 1033.5 hPa 0.0 l/m 0.5 km/h (0 Bft) SO 0.00 h 0 W/m -3.8 C -2.4 C
05.01.2005 01:00 -1.7 C 93 % 1033.4 hPa 0.0 l/m 4.1 km/h (1 Bft) SO 0.00 h 0 W/m -2.7 C -3.0 C
05.01.2005 02:00 -1.5 C 93 % 1033.9 hPa 0.0 l/m 2.8 km/h (1 Bft) SO 0.00 h 0 W/m -2.6 C -2.4 C
05.01.2005 03:00 -0.8 C 93 % 1033.3 hPa 0.0 l/m 8.2 km/h (2 Bft) SO 0.00 h 0 W/m -1.8 C -3.5 C
05.01.2005 04:00 -1.1 C 90 % 1033.6 hPa 0.0 l/m 3.5 km/h (1 Bft) SO 0.00 h 0 W/m -2.6 C -2.2 C
05.01.2005 05:00 -2.1 C 91 % 1034.5 hPa 0.0 l/m 1.0 km/h (0 Bft) SO 0.00 h 0 W/m -3.4 C -2.4 C
05.01.2005 06:00 -2.3 C 92 % 1034.5 hPa 0.0 l/m 2.4 km/h (1 Bft) SO 0.00 h 0 W/m -3.5 C -3.0 C
05.01.2005 07:00 -2.2 C 93 % 1034.5 hPa 0.0 l/m 8.2 km/h (2 Bft) O-SO 0.00 h 0 W/m -3.1 C -5.0 C
05.01.2005 08:00 -2.2 C 93 % 1034.5 hPa 0.0 l/m 4.9 km/h (1 Bft) SO 0.07 h 27 W/m -3.1 C -3.8 C
05.01.2005 09:00 -0.6 C 89 % 1034.3 hPa 0.0 l/m 15.4 km/h (3 Bft) SO 0.83 h 157 W/m -2.3 C -5.1 C
05.01.2005 10:00 2.6 C 72 % 1033.8 hPa 0.0 l/m 6.2 km/h (2 Bft) SO 0.60 h 201 W/m -1.9 C 1.1 C
05.01.2005 11:00 5.6 C 62 % 1033.4 hPa 0.0 l/m 9.3 km/h (2 Bft) SO 0.73 h 347 W/m -1.0 C 3.9 C
05.01.2005 12:00 6.7 C 58 % 1033.0 hPa 0.0 l/m 10.5 km/h (2 Bft) SO 0.93 h 353 W/m -1.0 C 4.8 C
05.01.2005 13:00 6.7 C 57 % 1032.2 hPa 0.0 l/m 6.3 km/h (2 Bft) SO 0.80 h 320 W/m -1.3 C 5.6 C
05.01.2005 14:00 6.3 C 58 % 1031.8 hPa 0.0 l/m 7.4 km/h (2 Bft) SO 0.00 h 99 W/m -1.4 C 5.0 C
05.01.2005 15:00 6.2 C 60 % 1031.2 hPa 0.0 l/m 2.7 km/h (1 Bft) O-SO 0.27 h 82 W/m -1.0 C 5.9 C
05.01.2005 16:00 5.3 C 63 % 1031.3 hPa 0.0 l/m 4.2 km/h (1 Bft) SO 0.00 h 12 W/m -1.1 C 4.7 C
05.01.2005 17:00 5.1 C 63 % 1031.4 hPa 0.0 l/m 6.0 km/h (2 Bft) O-SO 0.00 h 0 W/m -1.4 C 3.9 C
05.01.2005 18:00 4.9 C 63 % 1031.4 hPa 0.0 l/m 3.4 km/h (1 Bft) SO 0.00 h 0 W/m -1.6 C 4.4 C
05.01.2005 19:00 4.7 C 66 % 1031.4 hPa 0.0 l/m 1.5 km/h (1 Bft) W-SW 0.00 h 0 W/m -1.2 C 4.6 C
05.01.2005 20:00 3.7 C 81 % 1031.6 hPa 0.3 l/m 3.7 km/h (1 Bft) SO 0.00 h 0 W/m 0.7 C 2.8 C
05.01.2005 21:00 3.9 C 84 % 1030.8 hPa 0.0 l/m 6.2 km/h (2 Bft) O-SO 0.00 h 0 W/m 1.4 C 2.4 C
05.01.2005 22:00 4.5 C 80 % 1030.4 hPa 0.0 l/m 4.3 km/h (1 Bft) SO 0.00 h 0 W/m 1.4 C 3.7 C
05.01.2005 23:00 4.2 C 86 % 1029.9 hPa 0.6 l/m 0.2 km/h (0 Bft) SW 0.00 h 0 W/m 2.0 C 4.2 C
06.01.2005 00:00 4.0 C 93 % 1029.4 hPa 1.5 l/m 0.4 km/h (0 Bft) SO 0.00 h 0 W/m 2.9 C 3.9 C
06.01.2005 01:00 4.3 C 96 % 1029.4 hPa 1.2 l/m 7.2 km/h (2 Bft) SO 0.00 h 0 W/m 3.8 C 2.8 C
06.01.2005 02:00 4.5 C 98 % 1029.4 hPa 0.6 l/m 10.5 km/h (2 Bft) S-SO 0.00 h 0 W/m 4.2 C 2.2 C
06.01.2005 03:00 4.6 C 98 % 1028.9 hPa 0.0 l/m 13.1 km/h (3 Bft) SO 0.00 h 0 W/m 4.4 C 1.7 C
06.01.2005 04:00 5.7 C 98 % 1029.0 hPa 0.6 l/m 12.4 km/h (3 Bft) S 0.00 h 0 W/m 5.4 C 3.5 C
06.01.2005 05:00 7.7 C 89 % 1028.8 hPa 0.0 l/m 31.2 km/h (5 Bft) W-NW 0.00 h 0 W/m 6.0 C 3.6 C
06.01.2005 06:00 8.3 C 80 % 1029.8 hPa 0.0 l/m 33.6 km/h (5 Bft) W-NW 0.00 h 0 W/m 5.1 C 4.2 C
06.01.2005 07:00 8.1 C 80 % 1031.2 hPa 0.0 l/m 40.4 km/h (6 Bft) W-NW 0.00 h 0 W/m 4.8 C 3.4 C
06.01.2005 08:00 7.5 C 81 % 1032.2 hPa 0.0 l/m 32.8 km/h (5 Bft) W-NW 0.00 h 14 W/m 4.5 C 3.3 C
06.01.2005 09:00 7.9 C 76 % 1033.4 hPa 0.0 l/m 26.5 km/h (4 Bft) W-NW 0.00 h 24 W/m 4.0 C 4.2 C
06.01.2005 10:00 8.0 C 74 % 1034.1 hPa 0.0 l/m 6.6 km/h (2 Bft) W 0.00 h 40 W/m 3.7 C 7.1 C
06.01.2005 11:00 7.9 C 75 % 1035.0 hPa 0.0 l/m 6.7 km/h (2 Bft) W 0.00 h 27 W/m 3.7 C 6.9 C
06.01.2005 12:00 7.8 C 77 % 1035.1 hPa 0.3 l/m 17.1 km/h (3 Bft) W 0.00 h 70 W/m 4.0 C 5.0 C
06.01.2005 13:00 7.8 C 79 % 1035.1 hPa 0.0 l/m 17.0 km/h (3 Bft) W-NW 0.00 h 54 W/m 4.4 C 5.1 C
06.01.2005 14:00 8.0 C 77 % 1035.7 hPa 0.0 l/m 11.3 km/h (2 Bft) W-NW 0.00 h 52 W/m 4.2 C 6.2 C
06.01.2005 15:00 8.3 C 77 % 1036.1 hPa 0.3 l/m 12.4 km/h (3 Bft) W-NW 0.00 h 55 W/m 4.4 C 6.2 C
06.01.2005 16:00 6.9 C 90 % 1036.4 hPa 0.0 l/m 3.3 km/h (1 Bft) W 0.00 h 12 W/m 5.3 C 6.3 C
06.01.2005 17:00 6.6 C 94 % 1037.4 hPa 0.3 l/m 1.0 km/h (0 Bft) W-NW 0.00 h 0 W/m 5.7 C 6.5 C
06.01.2005 18:00 5.8 C 96 % 1037.5 hPa 0.0 l/m 3.6 km/h (1 Bft) O-SO 0.00 h 0 W/m 5.3 C 5.1 C
06.01.2005 19:00 5.5 C 97 % 1038.3 hPa 0.0 l/m 4.5 km/h (1 Bft) O-SO 0.00 h 0 W/m 5.0 C 4.6 C
06.01.2005 20:00 4.7 C 98 % 1038.6 hPa 0.0 l/m 3.5 km/h (1 Bft) O-SO 0.00 h 0 W/m 4.3 C 4.0 C
06.01.2005 21:00 4.5 C 99 % 1038.1 hPa 0.0 l/m 2.0 km/h (1 Bft) O-SO 0.00 h 0 W/m 4.4 C 4.2 C
06.01.2005 22:00 4.2 C 100 % 1037.7 hPa 0.0 l/m 2.8 km/h (1 Bft) O-SO 0.00 h 0 W/m 4.2 C 3.6 C
06.01.2005 23:00 4.0 C 100 % 1037.8 hPa 0.0 l/m 4.4 km/h (1 Bft) O-SO 0.00 h 0 W/m 4.0 C 3.1 C
07.01.2005 00:00 3.2 C 100 % 1037.9 hPa 0.0 l/m 9.0 km/h (2 Bft) O-SO 0.00 h 0 W/m 3.2 C 0.9 C
07.01.2005 01:00 4.0 C 100 % 1037.8 hPa 0.0 l/m 9.0 km/h (2 Bft) SO 0.00 h 0 W/m 4.0 C 1.8 C
07.01.2005 02:00 4.2 C 100 % 1037.6 hPa 0.0 l/m 6.8 km/h (2 Bft) O-SO 0.00 h 0 W/m 4.2 C 2.6 C
07.01.2005 03:00 4.2 C 100 % 1037.0 hPa 0.0 l/m 3.2 km/h (1 Bft) O 0.00 h 0 W/m 4.2 C 3.5 C
07.01.2005 04:00 3.8 C 99 % 1036.7 hPa 0.0 l/m 3.4 km/h (1 Bft) SO 0.00 h 0 W/m 3.7 C 3.1 C
07.01.2005 05:00 2.0 C 98 % 1037.0 hPa 0.0 l/m 12.5 km/h (3 Bft) O-SO 0.00 h 0 W/m 1.7 C -1.2 C
07.01.2005 06:00 1.9 C 100 % 1037.0 hPa 0.0 l/m 11.3 km/h (2 Bft) SO 0.00 h 0 W/m 1.8 C -1.3 C
07.01.2005 07:00 1.5 C 100 % 1037.2 hPa 0.0 l/m 3.9 km/h (1 Bft) SO 0.00 h 0 W/m 1.5 C 0.5 C
07.01.2005 08:00 1.7 C 100 % 1037.3 hPa 0.0 l/m 5.2 km/h (1 Bft) S-SO 0.53 h 57 W/m 1.7 C 0.3 C
07.01.2005 09:00 2.9 C 96 % 1037.9 hPa 0.0 l/m 6.4 km/h (2 Bft) SO 0.93 h 164 W/m 2.4 C 1.3 C
07.01.2005 10:00 3.3 C 92 % 1037.9 hPa 0.0 l/m 10.8 km/h (2 Bft) SO 0.62 h 198 W/m 2.1 C 0.7 C
07.01.2005 11:00 4.0 C 89 % 1037.5 hPa 0.0 l/m 11.5 km/h (2 Bft) S-SO 1.00 h 334 W/m 2.3 C 1.4 C
07.01.2005 12:00 5.4 C 82 % 1036.3 hPa 0.0 l/m 12.9 km/h (3 Bft) SO 1.00 h 434 W/m 2.6 C 2.7 C
07.01.2005 13:00 5.9 C 77 % 1035.4 hPa 0.0 l/m 17.5 km/h (3 Bft) SO 0.92 h 286 W/m 2.1 C 2.5 C
07.01.2005 14:00 5.2 C 78 % 1034.8 hPa 0.0 l/m 16.0 km/h (3 Bft) SO 0.63 h 188 W/m 1.7 C 1.9 C
07.01.2005 15:00 4.9 C 80 % 1034.5 hPa 0.0 l/m 7.9 km/h (2 Bft) SO 0.78 h 125 W/m 1.7 C 3.4 C
07.01.2005 16:00 3.9 C 84 % 1034.7 hPa 0.0 l/m 2.7 km/h (1 Bft) S-SW 0.57 h 43 W/m 1.4 C 3.5 C
07.01.2005 17:00 2.6 C 90 % 1034.8 hPa 0.0 l/m 2.0 km/h (1 Bft) SO 0.00 h 0 W/m 1.1 C 2.3 C
07.01.2005 18:00 2.0 C 93 % 1034.4 hPa 0.0 l/m 3.9 km/h (1 Bft) SO 0.00 h 0 W/m 1.0 C 1.0 C
07.01.2005 19:00 1.5 C 96 % 1034.0 hPa 0.0 l/m 1.5 km/h (1 Bft) SW 0.00 h 0 W/m 0.9 C 1.4 C
07.01.2005 20:00 1.2 C 97 % 1033.6 hPa 0.0 l/m 1.2 km/h (1 Bft) O-SO 0.00 h 0 W/m 0.8 C 0.9 C
07.01.2005 21:00 1.9 C 100 % 1032.9 hPa 0.0 l/m 4.8 km/h (1 Bft) O-SO 0.00 h 0 W/m 1.8 C 0.5 C
07.01.2005 22:00 2.0 C 100 % 1032.9 hPa 0.0 l/m 2.3 km/h (1 Bft) O-SO 0.00 h 0 W/m 2.0 C 1.6 C
07.01.2005 23:00 1.9 C 100 % 1031.9 hPa 0.0 l/m 0.7 km/h (0 Bft) O-NO 0.00 h 0 W/m 1.9 C 1.9 C
08.01.2005 00:00 1.8 C 100 % 1031.8 hPa 0.0 l/m 4.0 km/h (1 Bft) SO 0.00 h 0 W/m 1.8 C 0.8 C
08.01.2005 01:00 1.9 C 99 % 1030.9 hPa 0.0 l/m 12.4 km/h (3 Bft) SO 0.00 h 0 W/m 1.7 C -1.3 C
08.01.2005 02:00 1.6 C 97 % 1030.8 hPa 0.0 l/m 9.9 km/h (2 Bft) SO 0.00 h 0 W/m 1.2 C -1.1 C
08.01.2005 03:00 1.0 C 96 % 1029.9 hPa 0.0 l/m 8.6 km/h (2 Bft) SO 0.00 h 0 W/m 0.4 C -1.4 C
08.01.2005 04:00 0.1 C 96 % 1030.0 hPa 0.0 l/m 3.3 km/h (1 Bft) SW 0.00 h 0 W/m -0.4 C -0.5 C
08.01.2005 05:00 -0.0 C 97 % 1029.1 hPa 0.0 l/m 5.0 km/h (1 Bft) S 0.00 h 0 W/m -0.5 C -1.4 C
08.01.2005 06:00 -0.9 C 96 % 1029.1 hPa 0.0 l/m 0.0 km/h (0 Bft) N 0.00 h 0 W/m -1.5 C -0.9 C
08.01.2005 07:00 -1.2 C 97 % 1028.2 hPa 0.0 l/m 1.1 km/h (0 Bft) O 0.00 h 0 W/m -1.6 C -1.4 C
08.01.2005 08:00 -1.1 C 98 % 1028.1 hPa 0.0 l/m 1.1 km/h (1 Bft) O 0.38 h 45 W/m -1.4 C -1.4 C
08.01.2005 09:00 0.8 C 93 % 1027.8 hPa 0.0 l/m 2.2 km/h (1 Bft) O-SO 1.00 h 178 W/m -0.3 C 0.2 C
08.01.2005 10:00 2.4 C 80 % 1027.6 hPa 0.0 l/m 5.6 km/h (1 Bft) SO 0.80 h 230 W/m -0.8 C 1.0 C
08.01.2005 11:00 3.8 C 75 % 1027.4 hPa 0.0 l/m 4.4 km/h (1 Bft) SO 1.00 h 331 W/m -0.2 C 2.8 C
08.01.2005 12:00 4.7 C 72 % 1026.8 hPa 0.0 l/m 0.2 km/h (0 Bft) N 1.00 h 401 W/m 0.1 C 4.7 C
08.01.2005 13:00 6.6 C 67 % 1025.9 hPa 0.0 l/m 0.4 km/h (0 Bft) W 1.00 h 383 W/m 0.8 C 6.6 C
08.01.2005 14:00 9.0 C 58 % 1025.0 hPa 0.0 l/m 8.8 km/h (2 Bft) SO 1.00 h 326 W/m 1.1 C 7.7 C
08.01.2005 15:00 9.8 C 53 % 1025.4 hPa 0.0 l/m 6.8 km/h (2 Bft) SO 0.78 h 208 W/m 0.7 C 9.3 C
08.01.2005 16:00 8.7 C 55 % 1025.7 hPa 0.0 l/m 5.4 km/h (1 Bft) SO 0.00 h 25 W/m 0.3 C 8.1 C
08.01.2005 17:00 7.4 C 58 % 1026.4 hPa 0.0 l/m 4.7 km/h (1 Bft) SO 0.00 h 0 W/m -0.3 C 6.7 C
08.01.2005 18:00 6.0 C 67 % 1027.1 hPa 0.0 l/m 4.9 km/h (1 Bft) SO 0.00 h 0 W/m 0.4 C 5.1 C
08.01.2005 19:00 6.5 C 68 % 1027.1 hPa 0.0 l/m 3.7 km/h (1 Bft) O-SO 0.00 h 0 W/m 1.0 C 5.8 C
08.01.2005 20:00 7.0 C 64 % 1028.0 hPa 0.0 l/m 1.7 km/h (1 Bft) W 0.00 h 0 W/m 0.7 C 6.8 C
08.01.2005 21:00 9.1 C 60 % 1027.7 hPa 0.0 l/m 24.7 km/h (4 Bft) W-NW 0.00 h 0 W/m 1.7 C 5.9 C
08.01.2005 22:00 9.2 C 64 % 1027.7 hPa 0.0 l/m 17.6 km/h (3 Bft) W-NW 0.00 h 0 W/m 2.8 C 6.7 C
08.01.2005 23:00 8.9 C 65 % 1028.5 hPa 0.0 l/m 11.1 km/h (2 Bft) W-NW 0.00 h 0 W/m 2.8 C 7.2 C
09.01.2005 00:00 8.5 C 69 % 1028.8 hPa 0.0 l/m 6.3 km/h (2 Bft) W 0.00 h 0 W/m 3.3 C 7.7 C
09.01.2005 01:00 8.4 C 71 % 1028.7 hPa 0.0 l/m 7.8 km/h (2 Bft) W 0.00 h 0 W/m 3.5 C 7.3 C
09.01.2005 02:00 8.3 C 73 % 1028.7 hPa 0.0 l/m 7.3 km/h (2 Bft) W-NW 0.00 h 0 W/m 3.8 C 7.2 C
09.01.2005 03:00 8.0 C 76 % 1028.9 hPa 0.0 l/m 7.0 km/h (2 Bft) W-NW 0.00 h 0 W/m 4.1 C 6.9 C
09.01.2005 04:00 8.2 C 77 % 1028.8 hPa 0.0 l/m 13.7 km/h (3 Bft) W-NW 0.00 h 0 W/m 4.5 C 5.9 C
09.01.2005 05:00 8.0 C 79 % 1028.9 hPa 0.0 l/m 9.3 km/h (2 Bft) W-NW 0.00 h 0 W/m 4.7 C 6.5 C
09.01.2005 06:00 7.2 C 82 % 1029.0 hPa 0.0 l/m 2.9 km/h (1 Bft) W-NW 0.00 h 0 W/m 4.4 C 6.8 C
09.01.2005 07:00 7.1 C 79 % 1029.0 hPa 0.0 l/m 0.1 km/h (0 Bft) N 0.00 h 0 W/m 3.7 C 7.1 C
09.01.2005 08:00 6.7 C 82 % 1030.1 hPa 0.0 l/m 0.3 km/h (0 Bft) W-SW 0.00 h 5 W/m 3.9 C 6.7 C
09.01.2005 09:00 6.7 C 87 % 1030.1 hPa 0.0 l/m 1.3 km/h (1 Bft) W 0.00 h 15 W/m 4.7 C 6.6 C
09.01.2005 10:00 7.7 C 84 % 1030.7 hPa 0.0 l/m 1.9 km/h (1 Bft) W 0.00 h 23 W/m 5.1 C 7.5 C
09.01.2005 11:00 8.4 C 83 % 1030.9 hPa 0.0 l/m 5.6 km/h (1 Bft) W-NW 0.00 h 33 W/m 5.7 C 7.7 C
09.01.2005 12:00 9.1 C 81 % 1030.8 hPa 0.0 l/m 16.6 km/h (3 Bft) W-NW 0.00 h 50 W/m 5.9 C 6.7 C
09.01.2005 13:00 10.0 C 74 % 1030.7 hPa 0.0 l/m 12.1 km/h (2 Bft) W-NW 0.07 h 187 W/m 5.6 C 9.0 C
09.01.2005 14:00 10.9 C 69 % 1029.7 hPa 0.0 l/m 13.1 km/h (3 Bft) W-NW 0.97 h 316 W/m 5.5 C 10.9 C
09.01.2005 15:00 10.2 C 72 % 1029.8 hPa 0.0 l/m 6.6 km/h (2 Bft) W 0.37 h 104 W/m 5.3 C 10.2 C
09.01.2005 16:00 9.8 C 73 % 1030.7 hPa 0.0 l/m 4.3 km/h (1 Bft) W 0.00 h 15 W/m 5.2 C 9.3 C
09.01.2005 17:00 9.2 C 76 % 1030.8 hPa 0.0 l/m 0.3 km/h (0 Bft) W-SW 0.00 h 0 W/m 5.1 C 9.2 C
09.01.2005 18:00 8.5 C 79 % 1031.1 hPa 0.0 l/m 2.9 km/h (1 Bft) O-SO 0.00 h 0 W/m 5.0 C 8.2 C
09.01.2005 19:00 6.8 C 86 % 1031.4 hPa 0.0 l/m 2.0 km/h (1 Bft) O-SO 0.00 h 0 W/m 4.5 C 6.5 C
09.01.2005 20:00 5.7 C 89 % 1031.3 hPa 0.0 l/m 4.2 km/h (1 Bft) O-SO 0.00 h 0 W/m 4.1 C 5.1 C
09.01.2005 21:00 4.8 C 92 % 1031.4 hPa 0.0 l/m 4.6 km/h (1 Bft) O 0.00 h 0 W/m 3.7 C 3.8 C
09.01.2005 22:00 3.9 C 94 % 1031.5 hPa 0.0 l/m 4.1 km/h (1 Bft) O-SO 0.00 h 0 W/m 3.0 C 2.9 C
09.01.2005 23:00 2.5 C 96 % 1031.8 hPa 0.0 l/m 4.2 km/h (1 Bft) O-SO 0.00 h 0 W/m 1.9 C 1.8 C
Min-Datum _ 05.01.05 08.01.05 08.01.05 - 03.01.05 - - - 04.01.05 05.01.05
_ Min-Zeit 00:45 15:41 15:07 - 00:48 - - - 22:59 07:43
Minimum _ -2.8 C 51 % 1024.5 hPa - 0.0 km/h (0 Bft) - - - -4.6 C -7.7 C
Max-Datum _ 09.01.05 06.01.05 04.01.05 06.01.05 06.01.05 - 03.01.05 05.01.05 06.01.05 09.01.05
_ Max-Zeit 14:15 21:26 00:07 00:08 07:11 - 13:03 12:09 04:52 14:15
Maximum _ 11.5 C 100 % 1039.1 hPa 1.5 l/m 58.5 km/h
W-NW (7 Bft)
- 0.05 h 506 W/m 7.1 C 11.5 C
Durchschnitt _ 3.9 C 82 % 1033.3 hPa #6.3 l/m 6.8 km/h (2 Bft) SO #29:30 h 157 W/m 1.0 C 2.6 C

Durchschnitt Minimum Temp.3.5 C
Durchschnitt Maximum Temp.4.3 C
© Kaiko 2005